Time;durP1;ratioP1;P1;durP2;ratioP2;P2;SDS_P1;SDS_P2;PMS_P1;PMS_P2;Temp;Humidity;BMP_temperature;BMP_pressure;BME280_temperature;BME280_humidity;BME280_pressure;Samples;Min_cycle;Max_cycle;Signal;HPM_P1;HPM_P2
2023/08/07 00:00:09;;;;;;;2.20;0.90;;;;;;;;;;5052143;28;20832;-78
2023/08/07 00:02:38;;;;;;;3.37;1.50;;;;;;;;;;5052110;28;20424;-82
2023/08/07 00:05:05;;;;;;;3.13;1.63;;;;;;;;;;5050820;28;20454;-81
2023/08/07 00:07:31;;;;;;;3.50;1.47;;;;;;;;;;5052098;28;20485;-81
2023/08/07 00:09:56;;;;;;;4.90;1.10;;;;;;;;;;5051831;28;20426;-78
2023/08/07 00:12:22;;;;;;;6.20;1.50;;;;;;;;;;5053649;28;20620;-81
2023/08/07 00:14:50;;;;;;;4.00;2.10;;;;;;;;;;5055710;28;20212;-81
2023/08/07 00:17:16;;;;;;;4.50;1.00;;;;;;;;;;5055880;28;20194;-80
2023/08/07 00:19:42;;;;;;;5.03;1.47;;;;;;;;;;5055660;28;20430;-81
2023/08/07 00:22:08;;;;;;;4.53;0.97;;;;;;;;;;5055506;28;20415;-81
2023/08/07 00:24:35;;;;;;;3.40;1.30;;;;;;;;;;5049419;28;20591;-77
2023/08/07 00:27:10;;;;;;;4.10;1.53;;;;;;;;;;5043814;28;20184;-77
2023/08/07 00:29:36;;;;;;;2.93;1.33;;;;;;;;;;5044240;28;21008;-81
2023/08/07 00:32:05;;;;;;;4.33;1.33;;;;;;;;;;5046244;28;20415;-77
2023/08/07 00:34:34;;;;;;;3.83;0.80;;;;;;;;;;5044893;28;20821;-78
2023/08/07 00:36:59;;;;;;;1.80;0.43;;;;;;;;;;5043975;28;20447;-81
2023/08/07 00:39:25;;;;;;;4.00;0.97;;;;;;;;;;5043850;28;20419;-77
2023/08/07 00:41:51;;;;;;;3.07;1.17;;;;;;;;;;5044998;28;20533;-79
2023/08/07 00:44:17;;;;;;;2.33;1.00;;;;;;;;;;5045780;28;20418;-78
2023/08/07 00:46:44;;;;;;;2.10;1.00;;;;;;;;;;5042653;28;20432;-80
2023/08/07 00:49:12;;;;;;;2.27;1.00;;;;;;;;;;5045012;28;20426;-78
2023/08/07 00:51:38;;;;;;;3.93;1.20;;;;;;;;;;5045659;28;20421;-77
2023/08/07 00:54:05;;;;;;;1.77;0.93;;;;;;;;;;5042067;28;20470;-78
2023/08/07 00:56:31;;;;;;;2.53;1.00;;;;;;;;;;5044873;28;20940;-79
2023/08/07 00:59:01;;;;;;;2.27;1.13;;;;;;;;;;5045557;28;20447;-77
2023/08/07 01:01:27;;;;;;;4.07;1.10;;;;;;;;;;5045654;28;20415;-81
2023/08/07 01:03:53;;;;;;;2.63;1.37;;;;;;;;;;5044833;28;20408;-81
2023/08/07 01:06:19;;;;;;;2.60;1.03;;;;;;;;;;5043639;28;20414;-82
2023/08/07 01:08:45;;;;;;;2.40;0.80;;;;;;;;;;5045070;28;20504;-78
2023/08/07 01:11:35;;;;;;;3.87;1.63;;;;;;;;;;5044633;28;20421;-78
2023/08/07 01:14:20;;;;;;;1.43;0.40;;;;;;;;;;5045775;28;20964;-79
2023/08/07 01:16:45;;;;;;;2.90;0.57;;;;;;;;;;5045418;28;20768;-78
2023/08/07 01:19:17;;;;;;;3.20;1.20;;;;;;;;;;5044314;28;20423;-78
2023/08/07 01:21:45;;;;;;;2.53;0.43;;;;;;;;;;5043411;28;20414;-78
2023/08/07 01:24:11;;;;;;;7.93;2.97;;;;;;;;;;5043730;28;20911;-80
2023/08/07 01:26:37;;;;;;;3.43;1.23;;;;;;;;;;5044878;28;20494;-81
2023/08/07 01:29:10;;;;;;;2.63;1.07;;;;;;;;;;5042919;28;20553;-78
2023/08/07 01:31:37;;;;;;;2.57;1.03;;;;;;;;;;5043562;28;20402;-80
2023/08/07 01:34:06;;;;;;;3.50;1.27;;;;;;;;;;5044966;28;20513;-78
2023/08/07 01:36:32;;;;;;;3.30;0.80;;;;;;;;;;5044067;28;20416;-79
2023/08/07 01:39:00;;;;;;;1.47;1.00;;;;;;;;;;5042807;28;20414;-81
2023/08/07 01:41:26;;;;;;;2.20;1.23;;;;;;;;;;5045034;28;20517;-78
2023/08/07 01:43:52;;;;;;;6.50;0.90;;;;;;;;;;5043855;28;20414;-80
2023/08/07 01:46:19;;;;;;;2.10;1.03;;;;;;;;;;5043239;28;20411;-78
2023/08/07 01:48:45;;;;;;;4.57;1.90;;;;;;;;;;5042922;28;20412;-81
2023/08/07 01:51:11;;;;;;;3.90;1.10;;;;;;;;;;5043896;28;20453;-79
2023/08/07 01:53:37;;;;;;;3.80;0.60;;;;;;;;;;5043921;28;20665;-78
2023/08/07 01:56:03;;;;;;;4.23;1.17;;;;;;;;;;5042653;28;20203;-81
2023/08/07 01:58:29;;;;;;;4.57;1.10;;;;;;;;;;5044103;28;20795;-77
2023/08/07 02:00:55;;;;;;;3.43;1.27;;;;;;;;;;5043941;28;20460;-77
2023/08/07 02:03:20;;;;;;;3.47;1.17;;;;;;;;;;5042335;28;20525;-77
2023/08/07 02:05:47;;;;;;;2.30;0.90;;;;;;;;;;5044327;28;20172;-79
2023/08/07 02:08:13;;;;;;;3.60;0.80;;;;;;;;;;5043201;28;20185;-79
2023/08/07 02:10:39;;;;;;;3.90;0.93;;;;;;;;;;5042442;28;20413;-81
2023/08/07 02:13:05;;;;;;;2.40;1.03;;;;;;;;;;5044581;28;20414;-78
2023/08/07 02:15:31;;;;;;;4.27;1.17;;;;;;;;;;5037668;28;20475;-80
2023/08/07 02:17:56;;;;;;;3.70;0.80;;;;;;;;;;5033781;28;20168;-79
2023/08/07 02:20:22;;;;;;;3.30;0.60;;;;;;;;;;5032537;28;20648;-79
2023/08/07 02:22:48;;;;;;;2.40;1.07;;;;;;;;;;5032447;28;20188;-80
2023/08/07 02:25:14;;;;;;;2.90;0.93;;;;;;;;;;5033393;28;20425;-79
2023/08/07 02:27:40;;;;;;;3.23;1.20;;;;;;;;;;5033726;28;20542;-80
2023/08/07 02:30:07;;;;;;;3.10;0.80;;;;;;;;;;5033464;28;21013;-79
2023/08/07 02:32:32;;;;;;;2.50;0.63;;;;;;;;;;5033574;28;20550;-81
2023/08/07 02:34:58;;;;;;;1.93;1.30;;;;;;;;;;5032754;28;20474;-79
2023/08/07 02:37:24;;;;;;;4.70;1.13;;;;;;;;;;5033496;28;20500;-81
2023/08/07 02:39:51;;;;;;;2.40;1.60;;;;;;;;;;5033066;28;20419;-79
2023/08/07 02:42:17;;;;;;;2.87;1.10;;;;;;;;;;5033392;28;20905;-79
2023/08/07 02:44:43;;;;;;;3.30;1.40;;;;;;;;;;5033391;28;20514;-79
2023/08/07 02:47:08;;;;;;;2.77;1.07;;;;;;;;;;5033431;28;20410;-79
2023/08/07 02:49:34;;;;;;;2.60;0.97;;;;;;;;;;5033280;28;20225;-83
2023/08/07 02:52:00;;;;;;;2.73;1.03;;;;;;;;;;5032146;28;20181;-80
2023/08/07 02:54:26;;;;;;;5.90;1.80;;;;;;;;;;5032851;28;20545;-80
2023/08/07 02:56:52;;;;;;;1.90;0.50;;;;;;;;;;5033262;28;20426;-80
2023/08/07 02:59:18;;;;;;;4.40;1.20;;;;;;;;;;5033216;28;20170;-79
2023/08/07 03:01:44;;;;;;;3.30;0.90;;;;;;;;;;5033129;28;20177;-79
2023/08/07 03:04:10;;;;;;;2.20;0.70;;;;;;;;;;5033143;28;20188;-79
2023/08/07 03:06:36;;;;;;;6.63;1.00;;;;;;;;;;5033093;28;20424;-79
2023/08/07 03:09:03;;;;;;;3.07;0.67;;;;;;;;;;5037267;28;20421;-79
2023/08/07 03:11:29;;;;;;;1.43;0.47;;;;;;;;;;5052781;28;20536;-79
2023/08/07 03:13:55;;;;;;;3.43;1.47;;;;;;;;;;5052783;28;20559;-79
2023/08/07 03:16:21;;;;;;;3.07;0.73;;;;;;;;;;5050646;28;20525;-79
2023/08/07 03:18:47;;;;;;;2.10;0.83;;;;;;;;;;5052789;28;20429;-79
2023/08/07 03:21:13;;;;;;;2.30;0.63;;;;;;;;;;5052868;28;20174;-80
2023/08/07 03:23:39;;;;;;;3.90;0.70;;;;;;;;;;5051200;28;20433;-79
2023/08/07 03:26:06;;;;;;;4.90;1.00;;;;;;;;;;5052766;28;20178;-79
2023/08/07 03:28:32;;;;;;;2.90;0.47;;;;;;;;;;5052646;28;20306;-79
2023/08/07 03:30:58;;;;;;;3.10;0.87;;;;;;;;;;5052704;28;20938;-83
2023/08/07 03:33:24;;;;;;;2.23;0.83;;;;;;;;;;5052785;28;20454;-79
2023/08/07 03:35:50;;;;;;;1.77;1.00;;;;;;;;;;5052678;28;20449;-79
2023/08/07 03:38:16;;;;;;;3.37;0.47;;;;;;;;;;5052334;28;20409;-79
2023/08/07 03:40:42;;;;;;;2.93;0.90;;;;;;;;;;5052646;28;20754;-79
2023/08/07 03:43:08;;;;;;;5.53;0.93;;;;;;;;;;5052562;28;20416;-80
2023/08/07 03:45:34;;;;;;;1.90;0.60;;;;;;;;;;5052825;28;20173;-80
2023/08/07 03:48:00;;;;;;;1.73;0.90;;;;;;;;;;5056587;28;20412;-79
2023/08/07 03:50:26;;;;;;;4.20;1.50;;;;;;;;;;5056412;28;20176;-81
2023/08/07 03:52:52;;;;;;;2.60;0.67;;;;;;;;;;5056141;28;20811;-80
2023/08/07 03:55:18;;;;;;;3.60;1.07;;;;;;;;;;5056367;28;20685;-80
2023/08/07 03:57:44;;;;;;;4.10;0.70;;;;;;;;;;5055387;28;20468;-80
2023/08/07 04:00:10;;;;;;;3.57;1.40;;;;;;;;;;5056328;28;20413;-80
2023/08/07 04:02:36;;;;;;;3.30;0.77;;;;;;;;;;5056205;28;20408;-79
2023/08/07 04:05:02;;;;;;;5.57;1.17;;;;;;;;;;5056284;28;20416;-79
2023/08/07 04:07:28;;;;;;;3.73;0.50;;;;;;;;;;5056206;28;20521;-79
2023/08/07 04:09:54;;;;;;;3.83;1.17;;;;;;;;;;5055752;28;20433;-79
2023/08/07 04:12:20;;;;;;;3.53;0.90;;;;;;;;;;5056148;28;20254;-81
2023/08/07 04:14:46;;;;;;;2.03;0.70;;;;;;;;;;5055866;28;20470;-80
2023/08/07 04:17:11;;;;;;;4.03;1.30;;;;;;;;;;5056013;28;20645;-82
2023/08/07 04:19:37;;;;;;;2.67;1.17;;;;;;;;;;5055973;28;20413;-79
2023/08/07 04:22:03;;;;;;;4.63;1.67;;;;;;;;;;5052042;28;20171;-79
2023/08/07 04:24:29;;;;;;;2.73;0.70;;;;;;;;;;5044668;28;20648;-79
2023/08/07 04:26:55;;;;;;;3.33;1.23;;;;;;;;;;5044910;28;20409;-80
2023/08/07 04:29:21;;;;;;;4.10;1.00;;;;;;;;;;5046200;28;20493;-82
2023/08/07 04:31:47;;;;;;;2.30;0.40;;;;;;;;;;5044642;28;20212;-79
2023/08/07 04:34:13;;;;;;;3.27;1.20;;;;;;;;;;5045010;28;20457;-80
2023/08/07 04:36:39;;;;;;;2.90;1.60;;;;;;;;;;5046102;28;20175;-80
2023/08/07 04:39:05;;;;;;;2.53;0.80;;;;;;;;;;5045348;28;20477;-79
2023/08/07 04:41:31;;;;;;;2.30;0.70;;;;;;;;;;5045324;28;20179;-80
2023/08/07 04:43:56;;;;;;;4.70;0.80;;;;;;;;;;5045659;28;20178;-80
2023/08/07 04:46:22;;;;;;;5.03;1.20;;;;;;;;;;5043849;28;20476;-83
2023/08/07 04:48:48;;;;;;;5.40;1.37;;;;;;;;;;5045536;28;20575;-77
2023/08/07 04:51:15;;;;;;;2.80;1.17;;;;;;;;;;5045163;28;20169;-78
2023/08/07 04:53:41;;;;;;;2.60;0.90;;;;;;;;;;5043362;28;20232;-80
2023/08/07 04:56:07;;;;;;;4.33;0.70;;;;;;;;;;5045586;28;20898;-79
2023/08/07 04:58:33;;;;;;;3.27;1.10;;;;;;;;;;5044116;28;20412;-82
2023/08/07 05:00:59;;;;;;;1.90;0.57;;;;;;;;;;5043873;28;20178;-79
2023/08/07 05:03:26;;;;;;;3.00;0.70;;;;;;;;;;5044471;28;20416;-79
2023/08/07 05:05:58;;;;;;;2.80;1.00;;;;;;;;;;5044636;28;20416;-79
2023/08/07 05:08:24;;;;;;;5.50;1.20;;;;;;;;;;5043111;28;20962;-79
2023/08/07 05:10:50;;;;;;;3.47;0.93;;;;;;;;;;5044758;28;20494;-81
2023/08/07 05:13:16;;;;;;;5.00;1.17;;;;;;;;;;5042884;28;20404;-79
2023/08/07 05:15:42;;;;;;;2.90;0.63;;;;;;;;;;5034927;28;20303;-79
2023/08/07 05:18:08;;;;;;;3.07;1.30;;;;;;;;;;5034922;28;21046;-80
2023/08/07 05:20:34;;;;;;;2.13;0.97;;;;;;;;;;5034795;28;20420;-79
2023/08/07 05:22:59;;;;;;;3.80;1.00;;;;;;;;;;5034455;28;20176;-79
2023/08/07 05:25:26;;;;;;;4.03;0.97;;;;;;;;;;5034696;28;20218;-79
2023/08/07 05:27:52;;;;;;;2.83;1.00;;;;;;;;;;5034551;28;20179;-79
2023/08/07 05:30:18;;;;;;;4.37;1.00;;;;;;;;;;5034708;28;20481;-79
2023/08/07 05:32:44;;;;;;;3.17;1.00;;;;;;;;;;5034651;28;20507;-79
2023/08/07 05:35:11;;;;;;;4.17;1.50;;;;;;;;;;5034559;28;20566;-79
2023/08/07 05:37:36;;;;;;;4.10;0.37;;;;;;;;;;5034190;28;20824;-80
2023/08/07 05:40:03;;;;;;;2.77;1.30;;;;;;;;;;5034501;28;20502;-79
2023/08/07 05:42:29;;;;;;;5.00;1.13;;;;;;;;;;5034397;28;20237;-79
2023/08/07 05:44:55;;;;;;;3.30;1.27;;;;;;;;;;5035677;28;21108;-80
2023/08/07 05:47:20;;;;;;;3.83;1.43;;;;;;;;;;5054101;28;20941;-81
2023/08/07 05:49:46;;;;;;;4.30;1.40;;;;;;;;;;5054195;28;20179;-80
2023/08/07 05:52:12;;;;;;;6.70;1.53;;;;;;;;;;5054177;28;20176;-81
2023/08/07 05:54:38;;;;;;;4.20;0.90;;;;;;;;;;5053662;28;20684;-81
2023/08/07 05:57:04;;;;;;;4.53;1.20;;;;;;;;;;5054066;28;20218;-80
2023/08/07 05:59:30;;;;;;;7.70;2.10;;;;;;;;;;5054022;28;20621;-80
2023/08/07 06:01:56;;;;;;;4.73;1.10;;;;;;;;;;5053927;28;20410;-80
2023/08/07 06:04:22;;;;;;;3.80;0.83;;;;;;;;;;5053941;28;20442;-81
2023/08/07 06:06:48;;;;;;;5.27;0.80;;;;;;;;;;5053901;28;20166;-79
2023/08/07 06:09:15;;;;;;;5.70;1.30;;;;;;;;;;5052617;28;20173;-79
2023/08/07 06:11:41;;;;;;;2.93;1.40;;;;;;;;;;5053674;28;20406;-80
2023/08/07 06:14:07;;;;;;;5.87;1.60;;;;;;;;;;5053590;28;20458;-79
2023/08/07 06:16:33;;;;;;;3.93;0.97;;;;;;;;;;5053690;28;20491;-80
2023/08/07 06:18:59;;;;;;;5.10;1.33;;;;;;;;;;5053678;28;20633;-80
2023/08/07 06:21:25;;;;;;;8.00;1.23;;;;;;;;;;5053649;28;20186;-80
2023/08/07 06:23:51;;;;;;;4.97;1.53;;;;;;;;;;5053153;28;20403;-80
2023/08/07 06:26:17;;;;;;;6.50;1.80;;;;;;;;;;5053477;28;20866;-80
2023/08/07 06:28:43;;;;;;;5.97;1.37;;;;;;;;;;5053258;28;20596;-77
2023/08/07 06:31:10;;;;;;;6.10;1.33;;;;;;;;;;5053451;28;20414;-78
2023/08/07 06:33:36;;;;;;;10.37;3.67;;;;;;;;;;5053322;28;20418;-79
2023/08/07 06:36:03;;;;;;;3.23;1.17;;;;;;;;;;5053408;28;20427;-78
2023/08/07 06:38:29;;;;;;;7.97;1.67;;;;;;;;;;5053023;28;20404;-80
2023/08/07 06:40:55;;;;;;;8.40;1.70;;;;;;;;;;5053163;28;20424;-77
2023/08/07 06:43:21;;;;;;;6.00;1.40;;;;;;;;;;5053178;28;20636;-77
2023/08/07 06:45:47;;;;;;;4.37;1.50;;;;;;;;;;5050128;28;20182;-77
2023/08/07 06:48:13;;;;;;;4.73;0.70;;;;;;;;;;5053210;28;20412;-77
2023/08/07 06:50:39;;;;;;;4.47;1.70;;;;;;;;;;5053067;28;20418;-79
2023/08/07 06:53:05;;;;;;;5.50;1.90;;;;;;;;;;5052781;28;20783;-77
2023/08/07 06:55:31;;;;;;;7.73;2.33;;;;;;;;;;5049830;28;20249;-79
2023/08/07 06:57:57;;;;;;;7.70;1.10;;;;;;;;;;5042594;28;20176;-79
2023/08/07 07:00:23;;;;;;;8.10;2.10;;;;;;;;;;5043473;28;20509;-77
2023/08/07 07:02:49;;;;;;;10.27;2.17;;;;;;;;;;5042416;28;20172;-78
2023/08/07 07:05:14;;;;;;;6.30;1.40;;;;;;;;;;5042921;28;20876;-77
2023/08/07 07:07:40;;;;;;;10.47;3.60;;;;;;;;;;5042623;28;20192;-79
2023/08/07 07:10:13;;;;;;;7.27;2.13;;;;;;;;;;5041302;28;20415;-77
2023/08/07 07:12:38;;;;;;;10.37;3.03;;;;;;;;;;5042312;28;20180;-77
2023/08/07 07:15:05;;;;;;;9.13;2.33;;;;;;;;;;5043337;28;21257;-77
2023/08/07 07:17:31;;;;;;;8.90;2.23;;;;;;;;;;5043533;28;20211;-77
2023/08/07 07:19:56;;;;;;;12.40;3.20;;;;;;;;;;5041004;28;21019;-78
2023/08/07 07:22:23;;;;;;;7.70;2.17;;;;;;;;;;5044783;28;20443;-77
2023/08/07 07:24:48;;;;;;;6.37;1.90;;;;;;;;;;5047438;28;20904;-76
2023/08/07 07:27:14;;;;;;;8.40;1.70;;;;;;;;;;5044854;28;20458;-79
2023/08/07 07:29:40;;;;;;;8.77;2.40;;;;;;;;;;5045912;28;20226;-82
2023/08/07 07:32:06;;;;;;;11.90;2.10;;;;;;;;;;5047400;28;20638;-80
2023/08/07 07:34:33;;;;;;;5.63;1.63;;;;;;;;;;5044356;28;20729;-78
2023/08/07 07:36:59;;;;;;;13.33;2.07;;;;;;;;;;5046031;28;20822;-80
2023/08/07 07:39:24;;;;;;;9.40;3.17;;;;;;;;;;5046931;28;20438;-79
2023/08/07 07:41:50;;;;;;;7.53;1.43;;;;;;;;;;5047994;28;20178;-80
2023/08/07 07:44:16;;;;;;;9.33;2.20;;;;;;;;;;5046225;28;20181;-80
2023/08/07 07:46:42;;;;;;;12.57;2.67;;;;;;;;;;5046803;28;20447;-79
2023/08/07 07:49:08;;;;;;;8.93;1.90;;;;;;;;;;5050668;28;20420;-80
2023/08/07 07:51:35;;;;;;;10.40;2.23;;;;;;;;;;5056310;28;20532;-80
2023/08/07 07:54:01;;;;;;;8.03;2.27;;;;;;;;;;5055984;28;20293;-79
2023/08/07 07:56:27;;;;;;;8.60;2.00;;;;;;;;;;5055011;28;20833;-79
2023/08/07 07:58:53;;;;;;;10.13;1.50;;;;;;;;;;5056202;28;20497;-78
2023/08/07 08:01:19;;;;;;;8.50;1.70;;;;;;;;;;5050523;28;20405;-79
2023/08/07 08:03:47;;;;;;;5.10;1.00;;;;;;;;;;5043390;28;20186;-80
2023/08/07 08:06:13;;;;;;;9.93;2.37;;;;;;;;;;5046589;28;20863;-79
2023/08/07 08:08:39;;;;;;;8.23;2.47;;;;;;;;;;5045710;28;20510;-79
2023/08/07 08:11:05;;;;;;;8.33;1.87;;;;;;;;;;5049154;28;20809;-79
2023/08/07 08:13:31;;;;;;;7.10;1.30;;;;;;;;;;5050992;28;20408;-79
2023/08/07 08:15:58;;;;;;;7.90;2.33;;;;;;;;;;5045551;28;20173;-79
2023/08/07 08:18:23;;;;;;;8.00;2.33;;;;;;;;;;5046427;28;20397;-78
2023/08/07 08:20:49;;;;;;;8.33;2.27;;;;;;;;;;5044244;28;20924;-79
2023/08/07 08:23:15;;;;;;;7.50;1.20;;;;;;;;;;5045258;28;20180;-79
2023/08/07 08:25:41;;;;;;;8.97;1.93;;;;;;;;;;5046013;28;20184;-79
2023/08/07 08:28:08;;;;;;;8.10;2.00;;;;;;;;;;5044071;28;20447;-78
2023/08/07 08:30:33;;;;;;;12.53;3.33;;;;;;;;;;5045959;28;20626;-79
2023/08/07 08:32:59;;;;;;;10.83;2.23;;;;;;;;;;5044468;28;20416;-79
2023/08/07 08:35:25;;;;;;;9.17;1.83;;;;;;;;;;5043976;28;20221;-79
2023/08/07 08:37:51;;;;;;;8.47;2.83;;;;;;;;;;5045619;28;20649;-79
2023/08/07 08:40:19;;;;;;;4.77;1.50;;;;;;;;;;5045099;28;20175;-78
2023/08/07 08:42:47;;;;;;;10.63;1.90;;;;;;;;;;5043919;28;20485;-79
2023/08/07 08:45:14;;;;;;;9.73;2.33;;;;;;;;;;5044823;28;20413;-80
2023/08/07 08:47:41;;;;;;;11.83;3.00;;;;;;;;;;5045292;28;20409;-78
2023/08/07 08:50:08;;;;;;;12.10;2.80;;;;;;;;;;5043849;28;20766;-79
2023/08/07 08:52:36;;;;;;;9.40;3.07;;;;;;;;;;5044949;28;20411;-79
2023/08/07 08:55:02;;;;;;;7.53;2.07;;;;;;;;;;5045299;28;20469;-79
2023/08/07 08:57:29;;;;;;;11.23;1.67;;;;;;;;;;5043880;28;20758;-79
2023/08/07 08:59:55;;;;;;;8.83;2.47;;;;;;;;;;5044964;28;20427;-80
2023/08/07 09:02:21;;;;;;;7.67;1.60;;;;;;;;;;5045322;28;20424;-79
2023/08/07 09:04:47;;;;;;;7.20;1.43;;;;;;;;;;5043605;28;20911;-80
2023/08/07 09:07:15;;;;;;;7.73;1.57;;;;;;;;;;5044830;28;20170;-80
2023/08/07 09:09:42;;;;;;;10.90;2.00;;;;;;;;;;5043805;28;20234;-80
2023/08/07 09:12:20;;;;;;;6.80;2.57;;;;;;;;;;5043304;28;20406;-79
2023/08/07 09:14:48;;;;;;;12.00;3.30;;;;;;;;;;5043178;28;20798;-79
2023/08/07 09:17:15;;;;;;;11.60;1.77;;;;;;;;;;5044902;28;20739;-80
2023/08/07 09:19:41;;;;;;;8.67;1.43;;;;;;;;;;5044903;28;20435;-80
2023/08/07 09:22:08;;;;;;;18.43;2.10;;;;;;;;;;5039579;28;20405;-82
2023/08/07 09:24:34;;;;;;;8.17;2.03;;;;;;;;;;5044735;28;20483;-80
2023/08/07 09:27:00;;;;;;;8.03;1.53;;;;;;;;;;5043288;28;20418;-78
2023/08/07 09:29:27;;;;;;;4.57;2.10;;;;;;;;;;5034455;28;20569;-77
2023/08/07 09:31:54;;;;;;;5.63;1.70;;;;;;;;;;5034748;28;20834;-81
2023/08/07 09:34:21;;;;;;;6.73;1.60;;;;;;;;;;5034095;28;20476;-81
2023/08/07 09:36:46;;;;;;;5.50;2.10;;;;;;;;;;5034571;28;20409;-80
2023/08/07 09:39:14;;;;;;;4.33;1.43;;;;;;;;;;5034255;28;20457;-80
2023/08/07 09:41:40;;;;;;;5.07;1.50;;;;;;;;;;5034542;28;20401;-81
2023/08/07 09:44:10;;;;;;;12.67;2.27;;;;;;;;;;5033049;28;20417;-79
2023/08/07 09:46:45;;;;;;;7.07;2.50;;;;;;;;;;5033110;28;20257;-80
2023/08/07 09:49:11;;;;;;;10.30;2.17;;;;;;;;;;5034310;28;20824;-80
2023/08/07 09:51:47;;;;;;;5.33;1.60;;;;;;;;;;5034275;28;20513;-82
2023/08/07 09:54:13;;;;;;;6.13;1.60;;;;;;;;;;5033977;28;20228;-80
2023/08/07 09:56:46;;;;;;;6.77;1.30;;;;;;;;;;5034180;28;20508;-80
2023/08/07 09:59:15;;;;;;;4.57;1.30;;;;;;;;;;5034181;28;20751;-79
2023/08/07 10:01:43;;;;;;;4.93;1.27;;;;;;;;;;5034018;28;20459;-80
2023/08/07 10:04:14;;;;;;;9.60;1.83;;;;;;;;;;5048003;28;20829;-80
2023/08/07 10:06:40;;;;;;;12.83;2.70;;;;;;;;;;5054030;28;20408;-82
2023/08/07 10:09:08;;;;;;;12.93;2.53;;;;;;;;;;5052299;28;20920;-81
2023/08/07 10:11:34;;;;;;;7.93;1.77;;;;;;;;;;5053861;28;20535;-80
2023/08/07 10:14:01;;;;;;;6.40;0.93;;;;;;;;;;5053594;28;20570;-80
2023/08/07 10:16:30;;;;;;;5.90;1.93;;;;;;;;;;5053733;28;20173;-81
2023/08/07 10:18:56;;;;;;;4.27;1.30;;;;;;;;;;5053774;28;20401;-80
2023/08/07 10:21:25;;;;;;;7.30;1.13;;;;;;;;;;5052316;28;20412;-83
2023/08/07 10:23:53;;;;;;;10.43;1.87;;;;;;;;;;5053243;28;20169;-83
2023/08/07 10:26:21;;;;;;;6.60;2.20;;;;;;;;;;5053505;28;20405;-84
2023/08/07 10:28:47;;;;;;;6.73;2.50;;;;;;;;;;5053298;28;20467;-78
2023/08/07 10:31:13;;;;;;;6.63;1.77;;;;;;;;;;5053580;28;20444;-80
2023/08/07 10:33:40;;;;;;;4.53;1.30;;;;;;;;;;5053361;28;20401;-80
2023/08/07 10:36:10;;;;;;;11.50;1.90;;;;;;;;;;5053299;28;20493;-80
2023/08/07 10:38:36;;;;;;;5.77;1.90;;;;;;;;;;5052599;28;20415;-82
2023/08/07 10:41:15;;;;;;;3.60;1.47;;;;;;;;;;5051956;28;20419;-81
2023/08/07 10:43:42;;;;;;;5.83;1.67;;;;;;;;;;5053363;28;20416;-79
2023/08/07 10:46:12;;;;;;;7.67;2.30;;;;;;;;;;5052227;28;20428;-80
2023/08/07 10:48:39;;;;;;;6.70;1.70;;;;;;;;;;5052499;28;20492;-78
2023/08/07 10:51:05;;;;;;;7.67;1.53;;;;;;;;;;5052449;28;20422;-80
2023/08/07 10:53:33;;;;;;;5.67;2.40;;;;;;;;;;5051354;28;20459;-79
2023/08/07 10:56:03;;;;;;;7.83;2.20;;;;;;;;;;5052461;28;20427;-81
2023/08/07 10:58:33;;;;;;;4.80;2.33;;;;;;;;;;5052987;28;20756;-80
2023/08/07 11:01:21;;;;;;;6.43;1.33;;;;;;;;;;5052993;28;20458;-80
2023/08/07 11:04:10;;;;;;;7.07;1.60;;;;;;;;;;5051824;28;20908;-82
2023/08/07 11:06:36;;;;;;;8.90;1.63;;;;;;;;;;5044829;28;20481;-80
2023/08/07 11:09:04;;;;;;;5.80;1.17;;;;;;;;;;5052776;28;20404;-80
2023/08/07 11:11:31;;;;;;;6.57;2.10;;;;;;;;;;5052907;28;20809;-82
2023/08/07 11:13:57;;;;;;;4.03;1.70;;;;;;;;;;5051161;28;20467;-82
2023/08/07 11:16:23;;;;;;;6.23;1.60;;;;;;;;;;5052294;28;20434;-82
2023/08/07 11:18:49;;;;;;;9.70;1.67;;;;;;;;;;5052733;28;20513;-82
2023/08/07 11:21:15;;;;;;;4.83;1.40;;;;;;;;;;5052132;28;20452;-82
2023/08/07 11:23:43;;;;;;;5.00;1.40;;;;;;;;;;5041762;28;20443;-81
2023/08/07 11:26:10;;;;;;;9.63;1.40;;;;;;;;;;5043236;28;20427;-82
2023/08/07 11:28:36;;;;;;;5.33;1.00;;;;;;;;;;5043529;28;20469;-84
2023/08/07 11:31:02;;;;;;;5.33;1.10;;;;;;;;;;5044170;28;20455;-81
2023/08/07 11:33:28;;;;;;;9.47;2.07;;;;;;;;;;5048224;28;20436;-79
2023/08/07 11:35:54;;;;;;;4.10;1.37;;;;;;;;;;5047296;28;20471;-83
2023/08/07 11:38:33;;;;;;;8.20;2.00;;;;;;;;;;5041952;28;20411;-80
2023/08/07 11:41:00;;;;;;;2.73;0.73;;;;;;;;;;5042250;28;20442;-82
2023/08/07 11:43:27;;;;;;;6.00;1.40;;;;;;;;;;5044126;28;20856;-81
2023/08/07 11:45:53;;;;;;;5.20;2.00;;;;;;;;;;5052314;28;20440;-81
2023/08/07 11:48:19;;;;;;;5.87;0.83;;;;;;;;;;5051980;28;20414;-81
2023/08/07 11:50:45;;;;;;;7.10;1.27;;;;;;;;;;5047857;28;20192;-79
2023/08/07 11:53:11;;;;;;;8.60;1.20;;;;;;;;;;5048881;28;20422;-82
2023/08/07 11:55:37;;;;;;;7.20;1.50;;;;;;;;;;5051401;28;20517;-79
2023/08/07 11:58:04;;;;;;;9.30;1.90;;;;;;;;;;5047319;28;20505;-82
2023/08/07 12:00:29;;;;;;;6.10;1.80;;;;;;;;;;5042607;28;20177;-79
2023/08/07 12:02:55;;;;;;;8.23;0.90;;;;;;;;;;5040721;28;20427;-82
2023/08/07 12:05:23;;;;;;;6.40;2.30;;;;;;;;;;5042613;28;20226;-80
2023/08/07 12:07:49;;;;;;;6.10;1.27;;;;;;;;;;5050868;28;20488;-82
2023/08/07 12:10:16;;;;;;;7.50;2.10;;;;;;;;;;5055750;28;20415;-81
2023/08/07 12:12:43;;;;;;;7.53;2.10;;;;;;;;;;5055247;28;20916;-81
2023/08/07 12:15:09;;;;;;;7.57;1.33;;;;;;;;;;5054364;28;21028;-82
2023/08/07 12:17:38;;;;;;;6.93;1.33;;;;;;;;;;5054599;28;20405;-81
2023/08/07 12:20:10;;;;;;;9.07;2.23;;;;;;;;;;5055503;28;20471;-81
2023/08/07 12:22:37;;;;;;;4.60;1.37;;;;;;;;;;5055404;28;20447;-83
2023/08/07 12:25:03;;;;;;;7.10;1.70;;;;;;;;;;5055980;28;20409;-81
2023/08/07 12:27:29;;;;;;;7.50;1.13;;;;;;;;;;5054960;28;20492;-79
2023/08/07 12:29:55;;;;;;;7.33;1.10;;;;;;;;;;5055496;28;20495;-79
2023/08/07 12:32:21;;;;;;;10.67;2.10;;;;;;;;;;5055795;28;20622;-80
2023/08/07 12:34:49;;;;;;;7.03;1.43;;;;;;;;;;5054385;28;20471;-81
2023/08/07 12:37:15;;;;;;;4.33;1.30;;;;;;;;;;5055368;28;20196;-78
2023/08/07 12:39:41;;;;;;;6.40;1.77;;;;;;;;;;5055173;28;20412;-79
2023/08/07 12:42:07;;;;;;;6.03;1.17;;;;;;;;;;5043665;28;20324;-79
2023/08/07 12:44:33;;;;;;;7.57;1.50;;;;;;;;;;5051829;28;20477;-79
2023/08/07 12:46:59;;;;;;;4.90;1.30;;;;;;;;;;5044338;28;20647;-81
2023/08/07 12:49:25;;;;;;;4.10;1.03;;;;;;;;;;5050468;28;20202;-80
2023/08/07 12:51:56;;;;;;;4.40;0.87;;;;;;;;;;5046955;28;20429;-81
2023/08/07 12:54:22;;;;;;;6.77;1.57;;;;;;;;;;5049293;28;20220;-81
2023/08/07 12:56:52;;;;;;;8.03;1.30;;;;;;;;;;5047212;28;20889;-79
2023/08/07 12:59:17;;;;;;;6.23;2.03;;;;;;;;;;5045874;28;20399;-81
2023/08/07 13:01:43;;;;;;;6.20;1.30;;;;;;;;;;5055009;28;20758;-80
2023/08/07 13:04:09;;;;;;;7.17;1.47;;;;;;;;;;5055078;28;20981;-80
2023/08/07 13:06:35;;;;;;;6.20;1.10;;;;;;;;;;5054495;28;20183;-80
2023/08/07 13:09:01;;;;;;;7.30;1.50;;;;;;;;;;5054764;28;20534;-82
2023/08/07 13:11:33;;;;;;;7.00;1.33;;;;;;;;;;5054722;28;20650;-81
2023/08/07 13:13:59;;;;;;;9.23;1.87;;;;;;;;;;5054539;28;20538;-81
2023/08/07 13:16:25;;;;;;;5.77;1.70;;;;;;;;;;5052955;28;20439;-79
2023/08/07 13:18:57;;;;;;;5.60;1.50;;;;;;;;;;5053818;28;20930;-80
2023/08/07 13:21:23;;;;;;;6.20;1.63;;;;;;;;;;5054222;28;20427;-80
2023/08/07 13:23:49;;;;;;;7.30;1.93;;;;;;;;;;5053057;28;20424;-79
2023/08/07 13:26:15;;;;;;;7.30;2.47;;;;;;;;;;5048613;28;20414;-79
2023/08/07 13:28:41;;;;;;;5.47;1.73;;;;;;;;;;5048572;28;20213;-82
2023/08/07 13:31:07;;;;;;;6.57;1.63;;;;;;;;;;5052157;28;20784;-82
2023/08/07 13:33:33;;;;;;;5.57;1.23;;;;;;;;;;5054259;28;20169;-80
2023/08/07 13:35:59;;;;;;;7.10;1.53;;;;;;;;;;5047869;28;20702;-82
2023/08/07 13:38:25;;;;;;;8.30;1.77;;;;;;;;;;5036609;28;20781;-82
2023/08/07 13:40:51;;;;;;;10.33;1.77;;;;;;;;;;5034207;28;20445;-82
2023/08/07 13:43:17;;;;;;;9.77;1.43;;;;;;;;;;5047657;28;20512;-82
2023/08/07 13:45:43;;;;;;;3.70;1.27;;;;;;;;;;5054171;28;20451;-80
2023/08/07 13:48:09;;;;;;;7.73;1.57;;;;;;;;;;5054227;28;20261;-81
2023/08/07 13:50:37;;;;;;;5.97;1.37;;;;;;;;;;5052700;28;20420;-80
2023/08/07 13:53:03;;;;;;;7.30;1.07;;;;;;;;;;5053369;28;20531;-82
2023/08/07 13:55:29;;;;;;;6.90;1.30;;;;;;;;;;5053762;28;21030;-82
2023/08/07 13:57:55;;;;;;;6.20;1.47;;;;;;;;;;5053878;28;20412;-82
2023/08/07 14:00:21;;;;;;;5.70;1.80;;;;;;;;;;5052558;28;20181;-82
2023/08/07 14:02:50;;;;;;;8.00;1.80;;;;;;;;;;5053648;28;20408;-80
2023/08/07 14:05:16;;;;;;;9.30;2.20;;;;;;;;;;5053685;28;20181;-80
2023/08/07 14:07:42;;;;;;;6.50;1.80;;;;;;;;;;5051920;28;20564;-82
2023/08/07 14:10:08;;;;;;;6.27;1.37;;;;;;;;;;5053587;28;20177;-83
2023/08/07 14:12:34;;;;;;;12.23;1.80;;;;;;;;;;5053198;28;20946;-79
2023/08/07 14:17:39;;;;;;;6.60;1.40;;;;;;;;;;5047497;28;20209;-80
2023/08/07 14:20:05;;;;;;;5.80;1.53;;;;;;;;;;5053404;28;20419;-82
2023/08/07 14:22:32;;;;;;;8.60;1.30;;;;;;;;;;5052876;28;20197;-79
2023/08/07 14:24:58;;;;;;;8.97;1.50;;;;;;;;;;5053210;28;20778;-80
2023/08/07 14:27:23;;;;;;;7.57;1.30;;;;;;;;;;5053147;28;20413;-78
2023/08/07 14:29:50;;;;;;;8.00;2.07;;;;;;;;;;5052896;28;20408;-79
2023/08/07 14:32:16;;;;;;;6.07;1.43;;;;;;;;;;5052704;28;20409;-79
2023/08/07 14:34:42;;;;;;;6.97;0.90;;;;;;;;;;5034974;28;20975;-78
2023/08/07 14:37:07;;;;;;;7.70;1.70;;;;;;;;;;5052651;28;20439;-79
2023/08/07 14:39:33;;;;;;;10.00;1.90;;;;;;;;;;5053038;28;20404;-79
2023/08/07 14:41:59;;;;;;;9.50;1.63;;;;;;;;;;5053097;28;20181;-78